Impacts TAF Board INFO
FOR SITUATIONAL AWARENESS. NOT TO BE USED FOR FLIGHT PLANNING PURPOSES.
IDs:

KMIA - Miami Intl, FL, US

Issued at 2335 UTC 25 Apr 2017
Updated at 0207 UTC 26 Apr 2017
Potential Impact None Slight Moderate High
Time0153Z 26/03Z 26/04Z 26/05Z 26/06Z 26/07Z 26/08Z 26/09Z 26/10Z 26/11Z 26/12Z 26/13Z 26/14Z 26/15Z>>
Type OBS PRVL PRVL PRVL PRVL PRVL PRVL PRVL PRVL PRVL PRVL PRVL PRVL PRVL
VIS 10 >6 >6 >6 >6 >6 >6 >6 >6 >6 >6 >6 >6 >6
CIG -- -- -- -- -- -- -- -- -- -- -- -- -- --
Cover SCT SKC SKC SKC SKC SKC SKC SKC SKC SKC SKC SKC SCT SCT
FltCat VFR VFR VFR VFR VFR VFR VFR VFR VFR VFR VFR VFR VFR VFR
WX -- -- -- -- -- -- -- -- -- -- -- -- -- --
WDir 250 VRB VRB VRB VRB VRB VRB VRB VRB VRB VRB VRB 160 160
WSpd 6 4 4 4 4 4 4 4 4 4 4 4 8 8
WGst -- -- -- -- -- -- -- -- -- -- -- -- -- --

Raw TAF
KMIA 252335Z 2600/2624 26008KT P6SM FEW060 SCT250
  FM260300 VRB04KT P6SM SKC
  FM261400 16008KT P6SM SCT250
  FM262000 15010G18KT P6SM FEW060 SCT250
  FM262100 14008KT P6SM SCT250


Raw METAR
KMIA 260153Z COR 25006KT 10SM SCT250 23/14 A2987 RMK AO2 SLP116 T02330139
KMIA 260053Z 24009KT 10SM FEW050 SCT150 SCT250 24/14 A2985 RMK AO2 SLP109 T02440139
KMIA 252355Z 25007KT 10SM CLR 25/13 A2984
KMIA 252353Z 25011KT 10SM FEW060 SCT180 SCT250 26/13 A2984 RMK AO2 SLP104 T02560133 10300 20256 53009

METAR Board
Radar Display
Forecast Discussion

FOR SITUATIONAL AWARENESS. NOT TO BE USED FOR FLIGHT PLANNING PURPOSES.

Page loaded:  02:07 UTC  |   07:07 PM Pacific  |   08:07 PM Mountain  |   09:07 PM Central  |   10:07 PM Eastern

 

ADVISORIES

FORECASTS

FORECASTS

OBSERVATIONS

USER TOOLS

ABOUT US